Time;durP1;ratioP1;P1;durP2;ratioP2;P2;SDS_P1;SDS_P2;PMS_P1;PMS_P2;Temp;Humidity;BMP_temperature;BMP_pressure;BME280_temperature;BME280_humidity;BME280_pressure;Samples;Min_cycle;Max_cycle;Signal;HPM_P1;HPM_P2
2022/11/19 00:00:05;;;;;;;22.88;13.48;;;;;;;9.39;100.00;100747.25;10422702;28;97259;-77
2022/11/19 00:05:09;;;;;;;25.90;13.98;;;;;;;9.41;100.00;100739.38;10422852;28;96631;-77
2022/11/19 00:10:12;;;;;;;20.58;13.07;;;;;;;9.56;100.00;100727.78;10421918;28;96840;-76
2022/11/19 00:15:17;;;;;;;21.85;12.32;;;;;;;9.66;100.00;100735.44;10422295;27;96872;-77
2022/11/19 00:20:20;;;;;;;22.17;12.93;;;;;;;9.74;100.00;100743.09;10422100;28;96825;-77
2022/11/19 00:25:24;;;;;;;21.00;11.63;;;;;;;9.71;100.00;100748.38;10422449;28;96993;-77
2022/11/19 00:30:29;;;;;;;18.40;11.17;;;;;;;9.72;100.00;100750.13;10422175;28;97281;-77
2022/11/19 00:35:50;;;;;;;16.88;10.13;;;;;;;9.76;100.00;100751.75;10419723;28;97451;-77
2022/11/19 00:40:53;;;;;;;16.38;10.05;;;;;;;9.81;100.00;100757.75;10379759;28;96777;-76
2022/11/19 00:45:58;;;;;;;18.20;10.50;;;;;;;9.78;100.00;100764.78;10403724;28;96708;-77
2022/11/19 00:51:01;;;;;;;16.85;10.15;;;;;;;9.78;100.00;100759.56;10421601;28;97005;-77
2022/11/19 00:56:07;;;;;;;16.60;10.35;;;;;;;9.76;100.00;100772.66;10421250;28;96529;-77
2022/11/19 01:01:13;;;;;;;19.05;11.48;;;;;;;9.71;100.00;100755.38;10420096;28;96881;-77
2022/11/19 01:06:19;;;;;;;16.52;11.73;;;;;;;9.57;100.00;100747.81;10420736;28;96812;-77
2022/11/19 01:11:25;;;;;;;15.85;10.18;;;;;;;9.51;100.00;100742.72;10421083;28;96640;-77
2022/11/19 01:16:32;;;;;;;18.45;10.73;;;;;;;9.44;100.00;100748.06;10420290;28;97903;-77
2022/11/19 01:21:36;;;;;;;22.58;11.52;;;;;;;9.37;100.00;100741.19;10420479;28;96574;-76
2022/11/19 01:26:39;;;;;;;17.70;11.23;;;;;;;9.30;100.00;100742.22;10425784;28;96765;-77
2022/11/19 01:31:49;;;;;;;16.58;10.20;;;;;;;9.25;100.00;100750.13;10427742;28;96759;-77
2022/11/19 01:36:52;;;;;;;19.60;9.38;;;;;;;9.22;100.00;100751.94;10426711;28;96747;-76
2022/11/19 01:41:55;;;;;;;18.48;9.48;;;;;;;9.25;100.00;100749.25;10427313;28;96828;-76
2022/11/19 01:47:00;;;;;;;17.52;8.60;;;;;;;9.19;100.00;100739.78;10427812;28;96735;-76
2022/11/19 01:52:03;;;;;;;18.60;9.07;;;;;;;9.11;100.00;100745.16;10427411;28;97068;-76
2022/11/19 01:57:10;;;;;;;12.00;8.18;;;;;;;9.08;100.00;100736.53;10427405;28;96614;-77
2022/11/19 02:02:14;;;;;;;17.33;9.57;;;;;;;9.01;100.00;100740.97;10426740;28;97473;-77
2022/11/19 02:07:25;;;;;;;12.13;9.40;;;;;;;9.05;100.00;100737.41;10421723;28;96923;-77
2022/11/19 02:12:41;;;;;;;15.45;9.20;;;;;;;9.09;100.00;100723.44;10421822;28;96762;-77
2022/11/19 02:18:26;;;;;;;15.77;9.52;;;;;;;9.17;100.00;100725.91;10421410;28;96765;-76
2022/11/19 02:24:00;;;;;;;18.83;10.47;;;;;;;9.11;100.00;100737.31;10421148;28;96867;-77
2022/11/19 02:29:16;;;;;;;15.65;9.75;;;;;;;9.08;100.00;100729.53;10419885;28;96566;-77
2022/11/19 02:34:27;;;;;;;19.15;10.07;;;;;;;9.13;100.00;100734.69;10420782;28;96708;-77
2022/11/19 02:39:39;;;;;;;19.23;10.63;;;;;;;9.05;100.00;100737.41;10420360;28;96808;-76
2022/11/19 02:45:01;;;;;;;15.52;9.73;;;;;;;9.00;100.00;100733.19;10420237;28;96776;-76
2022/11/19 02:50:11;;;;;;;21.55;9.80;;;;;;;9.02;100.00;100727.06;10420559;28;96909;-76
2022/11/19 02:55:15;;;;;;;15.90;9.65;;;;;;;9.00;100.00;100718.41;10420406;28;96702;-76
2022/11/19 03:05:45;;;;;;;14.57;9.00;;;;;;;9.17;100.00;100725.06;10420571;28;96727;-76
2022/11/19 03:10:59;;;;;;;17.33;9.60;;;;;;;9.21;100.00;100732.81;10419808;28;96721;-76
2022/11/19 03:21:35;;;;;;;13.68;8.18;;;;;;;9.30;100.00;100740.44;10376655;28;97519;-76
2022/11/19 03:26:44;;;;;;;12.38;8.32;;;;;;;9.32;100.00;100739.56;10377838;28;97036;-77
2022/11/19 03:31:51;;;;;;;17.80;9.10;;;;;;;9.32;100.00;100745.66;10377141;28;96686;-76
2022/11/19 03:37:00;;;;;;;18.83;9.18;;;;;;;9.32;100.00;100752.63;10401935;28;96834;-76
2022/11/19 03:42:09;;;;;;;14.20;8.77;;;;;;;9.37;100.00;100737.75;10376661;28;96887;-76
2022/11/19 03:47:17;;;;;;;14.20;8.02;;;;;;;9.27;100.00;100743.13;10376136;28;96685;-76
2022/11/19 03:52:22;;;;;;;13.95;7.55;;;;;;;9.18;100.00;100732.00;10396368;28;96632;-76
2022/11/19 03:57:26;;;;;;;14.35;8.75;;;;;;;9.20;100.00;100731.06;10419013;28;96592;-76
2022/11/19 04:02:29;;;;;;;13.70;8.55;;;;;;;9.21;100.00;100738.03;10417459;28;96794;-76
2022/11/19 04:07:34;;;;;;;13.43;8.82;;;;;;;9.15;100.00;100745.09;10417398;28;96798;-76
2022/11/19 04:12:37;;;;;;;15.98;8.70;;;;;;;9.31;100.00;100743.91;10416517;28;96763;-77
2022/11/19 04:17:41;;;;;;;13.80;7.97;;;;;;;9.34;100.00;100741.25;10416863;28;96769;-76
2022/11/19 04:22:46;;;;;;;15.02;8.35;;;;;;;9.38;100.00;100740.28;10417141;28;96816;-76
2022/11/19 04:27:49;;;;;;;14.60;8.57;;;;;;;9.38;100.00;100735.06;10417079;28;96569;-76
2022/11/19 04:32:52;;;;;;;16.30;8.60;;;;;;;9.39;100.00;100736.81;10416833;28;96863;-76
2022/11/19 04:37:56;;;;;;;15.75;8.85;;;;;;;9.44;100.00;100731.53;10416864;28;96910;-76
2022/11/19 04:43:00;;;;;;;15.75;8.20;;;;;;;9.31;100.00;100728.25;10416253;28;96681;-76
2022/11/19 04:48:03;;;;;;;16.88;8.30;;;;;;;9.41;100.00;100732.41;10417200;28;96797;-77
2022/11/19 04:53:07;;;;;;;10.98;7.85;;;;;;;9.39;100.00;100734.19;10416452;28;96626;-77
2022/11/19 04:58:10;;;;;;;14.30;8.25;;;;;;;9.46;100.00;100733.22;10414968;27;96978;-76
2022/11/19 05:03:14;;;;;;;12.88;7.20;;;;;;;9.51;100.00;100725.31;10414243;28;96859;-76
2022/11/19 05:08:18;;;;;;;12.00;8.43;;;;;;;9.53;100.00;100727.88;10415859;28;96573;-76
2022/11/19 05:13:22;;;;;;;15.02;8.65;;;;;;;9.50;100.00;100722.72;10415942;28;96683;-76
2022/11/19 05:18:25;;;;;;;11.65;8.32;;;;;;;9.46;100.00;100732.38;10415502;28;96677;-76
2022/11/19 05:23:29;;;;;;;17.50;8.18;;;;;;;9.42;100.00;100726.34;10415804;28;96810;-76
2022/11/19 05:28:33;;;;;;;14.55;8.45;;;;;;;9.44;100.00;100723.72;10415287;28;96724;-76
2022/11/19 05:33:41;;;;;;;12.38;8.20;;;;;;;9.42;100.00;100747.22;10414563;28;96821;-76
2022/11/19 05:38:46;;;;;;;13.82;8.68;;;;;;;9.51;100.00;100740.97;10415944;28;96744;-76
2022/11/19 05:43:49;;;;;;;13.10;8.70;;;;;;;9.51;100.00;100735.75;10414707;28;97709;-77
2022/11/19 05:48:52;;;;;;;14.45;8.25;;;;;;;9.48;100.00;100741.03;10415052;28;96692;-76
2022/11/19 05:53:57;;;;;;;15.27;8.60;;;;;;;9.48;100.00;100741.03;10413495;28;96837;-76
2022/11/19 05:59:00;;;;;;;13.63;8.30;;;;;;;9.48;100.00;100741.03;10414513;28;96522;-76
2022/11/19 06:04:03;;;;;;;12.93;8.35;;;;;;;9.48;100.00;100730.56;10414192;28;96817;-76
2022/11/19 06:09:08;;;;;;;15.88;8.18;;;;;;;9.40;100.00;100728.09;10414328;28;96617;-77
2022/11/19 06:14:11;;;;;;;17.20;8.63;;;;;;;9.36;100.00;100730.78;10420887;28;96857;-76
2022/11/19 06:19:14;;;;;;;13.98;9.15;;;;;;;9.41;100.00;100729.81;10421357;28;96763;-76
2022/11/19 06:24:20;;;;;;;13.95;8.52;;;;;;;9.43;100.00;100733.28;10420898;28;96800;-76
2022/11/19 06:29:23;;;;;;;16.58;9.10;;;;;;;9.46;100.00;100735.81;10421503;28;96736;-76
2022/11/19 06:34:26;;;;;;;15.93;8.90;;;;;;;9.44;100.00;100745.44;10420601;28;97589;-76
2022/11/19 06:39:31;;;;;;;15.52;8.98;;;;;;;9.37;100.00;100759.47;10395703;28;96848;-76
2022/11/19 06:44:34;;;;;;;12.90;7.70;;;;;;;9.47;100.00;100776.72;10415796;28;96735;-76
2022/11/19 06:49:37;;;;;;;17.13;9.48;;;;;;;9.61;100.00;100779.06;10420388;28;96581;-76
2022/11/19 06:54:42;;;;;;;15.10;8.85;;;;;;;9.63;100.00;100797.31;10420449;28;96630;-76
2022/11/19 06:59:45;;;;;;;16.20;9.10;;;;;;;9.55;100.00;100799.19;10419685;27;96689;-77
2022/11/19 07:04:49;;;;;;;17.30;8.77;;;;;;;9.53;100.00;100795.75;10419458;28;96732;-76
2022/11/19 07:09:53;;;;;;;16.67;9.32;;;;;;;9.54;100.00;100792.25;10419843;28;96723;-76
2022/11/19 07:14:56;;;;;;;14.75;8.75;;;;;;;9.51;100.00;100793.19;10419427;28;97199;-77
2022/11/19 07:20:07;;;;;;;15.23;8.18;;;;;;;9.51;100.00;100794.94;10420234;28;96648;-77
2022/11/19 07:25:12;;;;;;;16.15;9.63;;;;;;;9.46;100.00;100801.09;10418469;27;97056;-76
2022/11/19 07:30:16;;;;;;;14.13;8.98;;;;;;;9.40;100.00;100795.97;10418829;28;96840;-76
2022/11/19 07:35:19;;;;;;;18.55;10.18;;;;;;;9.40;100.00;100790.75;10418205;28;97363;-76
2022/11/19 07:40:24;;;;;;;18.40;9.77;;;;;;;9.41;100.00;100787.22;10418458;28;96818;-76
2022/11/19 07:45:27;;;;;;;15.18;9.02;;;;;;;9.44;100.00;100789.81;10418714;28;96967;-77
2022/11/19 07:50:30;;;;;;;16.48;9.02;;;;;;;9.48;100.00;100801.91;10418404;28;96662;-76
2022/11/19 07:55:36;;;;;;;16.55;9.52;;;;;;;9.57;100.00;100807.84;10418392;28;96636;-77
2022/11/19 08:00:39;;;;;;;16.33;8.57;;;;;;;9.58;100.00;100820.03;10417744;28;96579;-76
2022/11/19 08:05:42;;;;;;;16.95;8.80;;;;;;;9.65;100.00;100832.09;10417647;28;96832;-76
2022/11/19 08:10:47;;;;;;;15.73;8.90;;;;;;;9.70;100.00;100839.81;10418679;28;96922;-76
2022/11/19 08:15:50;;;;;;;13.95;8.05;;;;;;;9.75;100.00;100844.06;10417706;28;96616;-77
2022/11/19 08:20:53;;;;;;;15.43;8.25;;;;;;;9.76;100.00;100844.94;10417464;28;96732;-76
2022/11/19 08:25:58;;;;;;;16.08;8.55;;;;;;;9.77;100.00;100850.13;10416006;28;96719;-76
2022/11/19 08:31:06;;;;;;;10.27;7.40;;;;;;;9.82;100.00;100860.50;10416930;28;96766;-76
2022/11/19 08:36:09;;;;;;;11.07;7.50;;;;;;;9.81;100.00;100843.94;10416327;28;96609;-77
2022/11/19 08:46:36;;;;;;;13.27;7.97;;;;;;;9.85;100.00;100856.06;10416488;28;96693;-76
2022/11/19 08:51:39;;;;;;;13.17;7.50;;;;;;;9.88;100.00;100856.91;10416631;28;96593;-76
2022/11/19 08:56:44;;;;;;;9.82;6.70;;;;;;;9.96;100.00;100865.47;10415853;28;96883;-76
2022/11/19 09:01:48;;;;;;;15.50;6.82;;;;;;;10.03;100.00;100875.75;10416932;28;96755;-77
2022/11/19 09:06:51;;;;;;;11.10;6.23;;;;;;;10.17;100.00;100904.22;10415979;28;96784;-76
2022/11/19 09:11:56;;;;;;;11.68;6.03;;;;;;;10.31;100.00;100917.00;10416163;28;96822;-77
2022/11/19 09:17:00;;;;;;;10.75;5.88;;;;;;;10.37;100.00;100910.78;10414707;28;96662;-77
2022/11/19 09:22:03;;;;;;;10.17;5.37;;;;;;;10.41;100.00;100925.53;10415277;28;96821;-77
2022/11/19 09:27:08;;;;;;;11.85;6.22;;;;;;;10.41;100.00;100934.22;10415562;28;96688;-77
2022/11/19 09:32:11;;;;;;;13.30;5.32;;;;;;;10.43;100.00;100937.66;10414856;28;96713;-77
2022/11/19 09:37:15;;;;;;;9.05;5.65;;;;;;;10.49;100.00;100925.38;10413626;28;96806;-77
2022/11/19 09:42:29;;;;;;;9.00;4.78;;;;;;;10.66;100.00;100907.56;10414362;27;97104;-77
2022/11/19 09:47:51;;;;;;;7.13;3.90;;;;;;;10.88;100.00;100922.78;10420296;28;96971;-77
2022/11/19 09:52:59;;;;;;;8.10;4.22;;;;;;;10.95;100.00;100917.38;10423150;28;96729;-77
2022/11/19 09:58:07;;;;;;;8.88;4.55;;;;;;;10.92;100.00;100920.06;10422011;28;96566;-77
2022/11/19 10:03:15;;;;;;;8.48;4.53;;;;;;;10.96;100.00;100926.06;10421801;28;96631;-77
2022/11/19 10:08:34;;;;;;;8.38;4.80;;;;;;;11.08;100.00;100915.31;10420231;28;96859;-77
2022/11/19 10:13:53;;;;;;;8.50;4.38;;;;;;;11.26;100.00;100908.81;10421512;28;96646;-77
2022/11/19 10:19:08;;;;;;;8.23;4.03;;;;;;;11.53;100.00;100911.66;10421373;28;96791;-76
2022/11/19 10:24:17;;;;;;;8.98;4.70;;;;;;;11.86;100.00;100903.81;10421158;28;96708;-77
2022/11/19 10:29:26;;;;;;;10.88;4.93;;;;;;;12.03;100.00;100891.09;10421171;28;96797;-77
2022/11/19 10:34:33;;;;;;;10.52;4.50;;;;;;;12.35;100.00;100891.94;10420619;28;96567;-77
2022/11/19 10:39:40;;;;;;;9.88;4.85;;;;;;;12.59;100.00;100890.34;10420382;28;96793;-77
2022/11/19 10:44:52;;;;;;;9.27;5.25;;;;;;;12.73;100.00;100886.47;10420786;28;96953;-77
2022/11/19 10:49:56;;;;;;;10.55;5.35;;;;;;;12.99;100.00;100883.06;10420613;28;96889;-77
2022/11/19 10:55:04;;;;;;;9.15;4.88;;;;;;;13.18;100.00;100868.41;10420656;28;97046;-77
2022/11/19 11:00:11;;;;;;;9.45;3.92;;;;;;;13.21;100.00;100863.06;10375706;28;96712;-78
2022/11/19 11:05:17;;;;;;;10.75;4.43;;;;;;;13.19;100.00;100859.63;10378125;28;97326;-77
2022/11/19 11:10:29;;;;;;;7.18;3.95;;;;;;;13.16;100.00;100846.59;10378422;28;96916;-77
2022/11/19 11:15:34;;;;;;;8.30;5.03;;;;;;;13.18;100.00;100842.16;10407658;28;96997;-77
2022/11/19 11:20:39;;;;;;;12.73;5.88;;;;;;;13.32;100.00;100843.47;10419132;28;96899;-77
2022/11/19 11:25:53;;;;;;;6.97;3.20;;;;;;;13.47;100.00;100842.94;10419362;28;96742;-77
2022/11/19 11:30:59;;;;;;;8.73;3.67;;;;;;;13.60;100.00;100843.34;10418699;28;96854;-77
2022/11/19 11:36:06;;;;;;;6.90;2.72;;;;;;;13.56;100.00;100839.97;10419934;28;96610;-77
2022/11/19 11:41:14;;;;;;;6.43;2.05;;;;;;;13.60;100.00;100831.09;10418137;28;97688;-77
2022/11/19 11:46:43;;;;;;;7.43;2.65;;;;;;;13.61;100.00;100818.81;10418236;28;96809;-77
2022/11/19 11:51:46;;;;;;;8.95;3.03;;;;;;;13.66;100.00;100821.28;10417575;28;96748;-77
2022/11/19 11:56:49;;;;;;;3.92;2.35;;;;;;;13.47;100.00;100814.03;10418306;28;96669;-77
2022/11/19 12:02:01;;;;;;;4.75;2.30;;;;;;;13.31;100.00;100810.22;10418174;28;96913;-77
2022/11/19 12:07:17;;;;;;;8.07;2.38;;;;;;;13.14;100.00;100810.81;10417320;27;96686;-77
2022/11/19 12:12:25;;;;;;;5.72;2.55;;;;;;;13.00;100.00;100806.03;10418076;28;96621;-77
2022/11/19 12:17:43;;;;;;;8.35;2.53;;;;;;;13.11;100.00;100787.28;10417541;28;96839;-77
2022/11/19 12:23:05;;;;;;;12.25;3.63;;;;;;;13.04;100.00;100791.88;10417381;28;97321;-77
2022/11/19 12:28:23;;;;;;;5.03;2.53;;;;;;;13.10;100.00;100785.56;10418069;28;96966;-77
2022/11/19 12:33:51;;;;;;;10.30;3.35;;;;;;;13.05;100.00;100769.97;10416915;28;96745;-77
2022/11/19 12:39:02;;;;;;;5.18;2.53;;;;;;;12.91;100.00;100766.94;10404526;28;96801;-78
2022/11/19 12:44:14;;;;;;;8.50;3.53;;;;;;;12.90;100.00;100770.47;10403583;28;96990;-83
2022/11/19 12:49:51;;;;;;;6.22;2.70;;;;;;;12.91;100.00;100765.19;10403899;28;96993;-80
2022/11/19 12:55:04;;;;;;;7.80;2.97;;;;;;;12.92;100.00;100752.91;10411875;27;96853;-78
2022/11/19 13:00:13;;;;;;;9.20;3.60;;;;;;;12.97;100.00;100753.63;10396458;28;97299;-80
2022/11/19 13:05:20;;;;;;;5.65;2.72;;;;;;;13.00;100.00;100737.75;10409937;28;96834;-76
2022/11/19 13:10:28;;;;;;;7.65;3.05;;;;;;;13.01;100.00;100736.84;10412023;28;97299;-78
2022/11/19 13:15:37;;;;;;;10.90;4.28;;;;;;;12.98;100.00;100729.94;10409585;28;99526;-77
2022/11/19 13:20:47;;;;;;;12.93;6.00;;;;;;;13.08;100.00;100711.22;10412815;28;97187;-75
2022/11/19 13:25:58;;;;;;;12.25;5.63;;;;;;;13.20;100.00;100719.56;10408762;28;99359;-76
2022/11/19 13:31:06;;;;;;;17.25;5.85;;;;;;;13.09;100.00;100705.94;10402842;28;96871;-77
2022/11/19 13:36:18;;;;;;;10.77;5.78;;;;;;;12.93;100.00;100704.78;10404057;28;97388;-76
2022/11/19 13:41:27;;;;;;;11.13;6.18;;;;;;;12.81;100.00;100706.00;10395421;28;97306;-76
2022/11/19 13:46:35;;;;;;;10.77;4.70;;;;;;;12.73;100.00;100708.88;10412465;28;97517;-76
2022/11/19 13:51:44;;;;;;;11.65;4.18;;;;;;;12.63;100.00;100717.97;10414690;28;97535;-76
2022/11/19 13:56:50;;;;;;;8.43;4.00;;;;;;;12.64;100.00;100719.69;10413855;28;96957;-76
2022/11/19 14:02:17;;;;;;;13.27;4.70;;;;;;;12.62;100.00;100716.25;10411899;28;99036;-77
2022/11/19 14:07:42;;;;;;;8.43;5.03;;;;;;;12.59;100.00;100732.94;10403564;28;96862;-77
2022/11/19 14:12:59;;;;;;;7.45;3.80;;;;;;;12.47;100.00;100739.47;10410748;28;98325;-75
2022/11/19 14:29:28;;;;;;;7.47;3.15;;;;;;;12.17;100.00;100774.50;10402668;28;97001;-77
2022/11/19 14:34:35;;;;;;;5.40;3.28;;;;;;;12.03;100.00;100774.91;10409105;27;98826;-76
2022/11/19 14:39:41;;;;;;;8.07;3.50;;;;;;;11.91;100.00;100779.59;10414476;28;97011;-78
2022/11/19 14:44:45;;;;;;;7.80;4.00;;;;;;;11.87;100.00;100785.00;10413213;28;97290;-79
2022/11/19 14:49:50;;;;;;;10.20;4.22;;;;;;;11.86;100.00;100785.88;10414392;28;97541;-77
2022/11/19 14:54:55;;;;;;;10.30;4.95;;;;;;;11.84;100.00;100790.31;10414185;28;97587;-85
2022/11/19 15:00:01;;;;;;;9.38;4.13;;;;;;;11.77;100.00;100801.88;10415955;28;96837;-85
2022/11/19 15:05:17;;;;;;;8.20;4.03;;;;;;;11.75;100.00;100791.44;10416056;28;97972;-83
2022/11/19 15:10:28;;;;;;;7.35;4.18;;;;;;;11.78;100.00;100801.84;10413564;28;97134;-83
2022/11/19 15:15:37;;;;;;;6.25;3.80;;;;;;;11.84;100.00;100803.44;10405678;28;96830;-76
2022/11/19 15:20:58;;;;;;;11.20;4.20;;;;;;;11.89;100.00;100799.75;10406914;28;96852;-78
2022/11/19 15:26:13;;;;;;;9.15;3.83;;;;;;;11.91;100.00;100804.97;10413939;28;98671;-78
2022/11/19 15:31:37;;;;;;;8.90;4.10;;;;;;;11.88;100.00;100810.28;10406305;28;99198;-80
2022/11/19 15:36:44;;;;;;;8.55;4.10;;;;;;;11.85;100.00;100802.50;10412054;28;98940;-79
2022/11/19 15:42:00;;;;;;;7.03;3.65;;;;;;;11.88;100.00;100812.91;10408393;27;97790;-79
2022/11/19 15:47:07;;;;;;;8.73;3.88;;;;;;;11.87;100.00;100816.44;10412112;28;96885;-81
2022/11/19 15:52:22;;;;;;;6.63;3.38;;;;;;;11.83;100.00;100806.94;10411842;28;98682;-83
2022/11/19 15:57:26;;;;;;;;;;;;;;;11.76;100.00;100808.88;10410790;28;99310;-80
2022/11/19 16:02:36;;;;;;;7.30;3.90;;;;;;;11.78;100.00;100816.69;10412856;28;96909;-80
2022/11/19 16:07:41;;;;;;;7.57;4.20;;;;;;;11.82;100.00;100813.09;10413441;28;97344;-84
2022/11/19 16:18:16;;;;;;;8.52;4.50;;;;;;;11.77;100.00;100812.38;10398743;28;96841;-82
2022/11/19 16:23:22;;;;;;;14.13;5.57;;;;;;;11.72;100.00;100802.84;10411189;28;96825;-86
2022/11/19 16:28:29;;;;;;;11.18;5.40;;;;;;;11.71;100.00;100806.38;10407000;28;96874;-80
2022/11/19 16:33:34;;;;;;;14.00;6.22;;;;;;;11.71;100.00;100816.88;10409329;28;97020;-80
2022/11/19 16:38:40;;;;;;;13.05;6.45;;;;;;;11.66;100.00;100826.63;10412742;28;96750;-81
2022/11/19 16:43:47;;;;;;;13.00;6.80;;;;;;;11.63;100.00;100818.84;10409815;28;96873;-82
2022/11/19 16:49:12;;;;;;;15.13;7.78;;;;;;;11.63;100.00;100818.84;10407751;28;97684;-80
2022/11/19 16:54:46;;;;;;;26.23;15.50;;;;;;;11.55;100.00;100811.19;10405299;28;96934;-75
2022/11/19 16:59:52;;;;;;;51.55;36.45;;;;;;;11.58;100.00;100815.47;10415127;28;96833;-75
2022/11/19 17:05:05;;;;;;;14.50;8.75;;;;;;;11.58;100.00;100815.47;10409992;28;98669;-75
2022/11/19 17:10:29;;;;;;;17.45;7.72;;;;;;;11.56;100.00;100804.19;10415830;28;96791;-76
2022/11/19 17:15:37;;;;;;;16.42;8.27;;;;;;;11.51;100.00;100803.47;10415367;28;96760;-75
2022/11/19 17:20:49;;;;;;;15.75;8.77;;;;;;;11.48;100.00;100788.66;10414683;28;96779;-75
2022/11/19 17:25:56;;;;;;;17.90;9.45;;;;;;;11.49;100.00;100794.78;10413648;28;96890;-75
2022/11/19 17:31:01;;;;;;;17.63;9.00;;;;;;;11.52;100.00;100802.56;10414234;28;96787;-75
2022/11/19 17:36:13;;;;;;;18.50;9.80;;;;;;;11.50;100.00;100796.50;10413401;28;96985;-76
2022/11/19 17:44:30;;;;;;;14.30;9.15;;;;;;;11.48;100.00;100788.66;10403858;28;97375;-75
2022/11/19 17:46:44;;;;;;;21.70;10.30;;;;;;;11.44;100.00;100808.00;10410555;28;96840;-76
2022/11/19 17:51:47;;;;;;;15.43;11.18;;;;;;;11.43;100.00;100805.41;10413421;28;97541;-77
2022/11/19 17:56:52;;;;;;;19.00;11.10;;;;;;;11.42;100.00;100814.19;10412517;28;96801;-78
2022/11/19 18:01:56;;;;;;;17.33;10.00;;;;;;;11.36;100.00;100847.50;10412523;28;96920;-75
2022/11/19 18:06:59;;;;;;;19.77;10.03;;;;;;;11.33;100.00;100892.06;10414674;27;99141;-77
2022/11/19 18:12:05;;;;;;;15.73;8.10;;;;;;;11.30;100.00;100894.72;10419067;28;99334;-76
2022/11/19 18:17:10;;;;;;;16.67;9.60;;;;;;;11.33;100.00;100886.00;10420267;28;96720;-76
2022/11/19 18:22:18;;;;;;;21.45;13.32;;;;;;;11.29;100.00;100866.81;10420307;28;96872;-76
2022/11/19 18:27:22;;;;;;;22.48;12.98;;;;;;;11.30;100.00;100862.47;10413426;28;97320;-80
2022/11/19 18:32:26;;;;;;;19.38;13.05;;;;;;;11.35;100.00;100887.66;10413906;28;96897;-76
2022/11/19 18:37:29;;;;;;;21.75;13.60;;;;;;;11.36;100.00;100878.03;10419978;28;96843;-76
2022/11/19 18:42:34;;;;;;;19.45;12.70;;;;;;;11.39;100.00;100877.97;10411038;28;96918;-74
2022/11/19 18:47:37;;;;;;;26.88;16.52;;;;;;;11.43;100.00;100863.88;10417409;28;97441;-77
2022/11/19 18:52:40;;;;;;;23.65;15.52;;;;;;;11.41;100.00;100839.50;10420019;28;96867;-75
2022/11/19 18:57:45;;;;;;;23.73;16.20;;;;;;;11.35;100.00;100845.75;10418866;28;96812;-76
2022/11/19 19:02:48;;;;;;;24.13;15.57;;;;;;;11.34;100.00;100890.31;10418775;28;96825;-75
2022/11/19 19:07:52;;;;;;;23.42;16.38;;;;;;;11.36;100.00;100899.84;10381694;28;96937;-74
2022/11/19 19:12:56;;;;;;;25.48;15.48;;;;;;;11.39;100.00;100898.06;10411272;28;96812;-74
2022/11/19 19:18:00;;;;;;;22.83;15.73;;;;;;;11.38;100.00;100896.31;10414610;28;96888;-76
2022/11/19 19:23:09;;;;;;;22.75;14.98;;;;;;;11.35;100.00;100881.56;10413974;28;97561;-74
2022/11/19 19:28:14;;;;;;;24.30;14.55;;;;;;;11.32;100.00;100887.72;10417192;28;96924;-75
2022/11/19 19:33:17;;;;;;;25.23;15.82;;;;;;;11.33;100.00;100889.44;10393938;28;96936;-74
2022/11/19 19:38:20;;;;;;;22.02;15.18;;;;;;;11.32;100.00;100887.72;10390373;27;96889;-75
2022/11/19 19:43:25;;;;;;;26.10;15.68;;;;;;;11.35;100.00;100903.38;10417117;28;96902;-75
2022/11/19 19:48:28;;;;;;;21.67;14.60;;;;;;;11.41;100.00;100902.34;10417600;28;96590;-75
2022/11/19 19:53:32;;;;;;;24.58;14.73;;;;;;;11.42;100.00;100909.31;10417188;28;96980;-75
2022/11/19 19:58:37;;;;;;;24.33;15.25;;;;;;;11.41;100.00;100935.53;10402444;28;99313;-75
2022/11/19 20:03:41;;;;;;;22.90;15.02;;;;;;;11.39;100.00;100947.81;10406603;28;96809;-74
2022/11/19 20:08:44;;;;;;;21.80;14.95;;;;;;;11.38;100.00;100943.47;10384990;28;97778;-73
2022/11/19 20:13:49;;;;;;;22.48;15.15;;;;;;;11.35;100.00;100945.25;10397320;28;96774;-74
2022/11/19 20:18:53;;;;;;;25.63;16.38;;;;;;;11.34;100.00;100946.13;10393951;28;97188;-74
2022/11/19 20:23:56;;;;;;;23.33;14.20;;;;;;;11.36;100.00;100946.09;10415072;28;96793;-74
2022/11/19 20:29:02;;;;;;;23.63;15.27;;;;;;;11.37;100.00;100958.31;10413380;27;96990;-75
2022/11/19 20:34:06;;;;;;;22.48;14.75;;;;;;;11.38;100.00;100949.56;10416452;28;96624;-75
2022/11/19 20:39:10;;;;;;;21.23;13.90;;;;;;;11.37;100.00;100955.69;10415248;28;98588;-74
2022/11/19 20:44:21;;;;;;;25.33;16.98;;;;;;;11.43;100.00;100959.91;10415255;28;96874;-74
2022/11/19 20:49:26;;;;;;;23.48;13.95;;;;;;;11.46;100.00;100970.31;10414325;28;96883;-74
2022/11/19 20:54:30;;;;;;;28.25;14.52;;;;;;;11.44;100.00;100974.75;10414643;28;97000;-73
2022/11/19 20:59:34;;;;;;;22.38;13.27;;;;;;;11.45;100.00;100981.69;10413238;28;97863;-73
2022/11/19 21:04:38;;;;;;;17.85;12.02;;;;;;;11.47;100.00;100982.53;10415567;28;96940;-73
2022/11/19 21:09:41;;;;;;;20.27;12.90;;;;;;;11.49;100.00;100967.63;10414710;28;96783;-74
2022/11/19 21:14:46;;;;;;;22.67;15.38;;;;;;;11.46;100.00;100959.84;10413835;28;96792;-74
2022/11/19 21:19:49;;;;;;;19.83;11.57;;;;;;;11.43;100.00;100962.53;10384057;28;96852;-74
2022/11/19 21:24:52;;;;;;;22.45;11.95;;;;;;;11.41;100.00;100951.25;10414514;28;96783;-74
2022/11/19 21:29:57;;;;;;;18.27;12.45;;;;;;;11.43;100.00;100952.91;10413917;28;97114;-78
2022/11/19 21:35:00;;;;;;;21.42;11.80;;;;;;;11.40;100.00;100949.50;10413161;28;98968;-78
2022/11/19 21:40:04;;;;;;;16.95;10.82;;;;;;;11.40;100.00;100949.50;10406214;27;97198;-78
2022/11/19 21:45:09;;;;;;;13.80;9.43;;;;;;;11.40;100.00;100931.19;10412105;28;96829;-77
2022/11/19 21:50:12;;;;;;;;;;;;;;;11.30;100.00;100943.63;10421102;28;98461;-76
2022/11/19 21:55:16;;;;;;;19.38;10.07;;;;;;;11.30;100.00;100941.84;10421584;28;97014;-76
2022/11/19 22:00:21;;;;;;;17.55;10.27;;;;;;;11.29;100.00;100950.59;10419613;28;98863;-78
2022/11/19 22:05:25;;;;;;;19.13;10.98;;;;;;;11.29;100.00;100966.31;10422570;28;96812;-76
2022/11/19 22:10:29;;;;;;;18.23;10.40;;;;;;;11.28;100.00;100959.38;10417662;28;99124;-78
2022/11/19 22:15:34;;;;;;;14.43;8.80;;;;;;;11.27;100.00;100962.88;10419177;28;96884;-77
2022/11/19 22:20:40;;;;;;;16.77;9.45;;;;;;;11.26;100.00;100947.19;10420252;28;97527;-77
2022/11/19 22:25:43;;;;;;;17.23;10.55;;;;;;;11.26;100.00;100955.94;10418555;28;97191;-77
2022/11/19 22:30:53;;;;;;;22.88;11.63;;;;;;;11.26;100.00;100953.31;10416557;28;99255;-77
2022/11/19 22:35:58;;;;;;;22.80;13.93;;;;;;;11.27;100.00;100952.41;10419153;28;97040;-77
2022/11/19 22:41:06;;;;;;;16.08;9.88;;;;;;;11.31;100.00;100959.34;10413829;28;96874;-77
2022/11/19 22:46:13;;;;;;;16.42;9.68;;;;;;;11.33;100.00;100935.72;10409231;28;97431;-76
2022/11/19 22:51:18;;;;;;;16.38;10.30;;;;;;;11.33;100.00;100949.69;10418504;28;96798;-78
2022/11/19 22:56:24;;;;;;;18.63;10.82;;;;;;;11.34;100.00;100959.22;10418448;28;96880;-78
2022/11/19 23:01:31;;;;;;;13.90;9.32;;;;;;;11.38;100.00;100953.94;10411451;28;97721;-76
2022/11/19 23:06:36;;;;;;;14.63;7.97;;;;;;;11.39;100.00;100950.44;10413105;28;96780;-79
2022/11/19 23:17:01;;;;;;;13.77;8.18;;;;;;;11.34;100.00;100948.75;10410993;28;96797;-77
2022/11/19 23:22:05;;;;;;;16.15;9.80;;;;;;;11.32;100.00;100955.78;10399761;28;97452;-77
2022/11/19 23:27:09;;;;;;;17.85;10.40;;;;;;;11.33;100.00;100952.28;10418300;28;97126;-75
2022/11/19 23:32:13;;;;;;;17.50;10.52;;;;;;;11.35;100.00;100954.88;10415966;28;96973;-77
2022/11/19 23:37:16;;;;;;;17.77;9.52;;;;;;;11.38;100.00;100946.06;10415418;28;96795;-77
2022/11/19 23:42:20;;;;;;;12.63;8.55;;;;;;;11.45;100.00;100939.78;10406119;28;98456;-77